createdAt,value
2023-01-25T00:00:17.832Z,102276.94
2023-01-25T00:03:05.802Z,102282.13
2023-01-25T00:05:34.055Z,102271.13
2023-01-25T00:08:03.468Z,102268.81
2023-01-25T00:10:31.513Z,102267.53
2023-01-25T00:12:59.091Z,102276.38
2023-01-25T00:15:27.416Z,102271.50
2023-01-25T00:17:55.154Z,102267.63
2023-01-25T00:20:23.325Z,102269.66
2023-01-25T00:22:50.930Z,102262.13
2023-01-25T00:25:20.571Z,102266.69
2023-01-25T00:27:47.950Z,102267.97
2023-01-25T00:30:16.605Z,102258.38
2023-01-25T00:32:58.330Z,102252.22
2023-01-25T00:35:31.005Z,102263.13
2023-01-25T00:38:02.898Z,102260.00
2023-01-25T00:40:32.461Z,102261.00
2023-01-25T00:43:00.111Z,102257.50
2023-01-25T00:45:28.186Z,102248.09
2023-01-25T00:47:56.230Z,102238.47
2023-01-25T00:50:24.230Z,102235.56
2023-01-25T00:52:51.825Z,102233.91
2023-01-25T00:55:20.140Z,102239.53
2023-01-25T00:57:49.234Z,102232.50
2023-01-25T01:00:17.728Z,102235.09
2023-01-25T01:02:45.398Z,102232.66
2023-01-25T01:05:13.909Z,102238.81
2023-01-25T01:07:41.488Z,102228.13
2023-01-25T01:10:10.623Z,102236.09
2023-01-25T01:12:38.254Z,102233.91
2023-01-25T01:15:09.449Z,102228.41
2023-01-25T01:17:37.245Z,102223.34
2023-01-25T01:20:06.529Z,102213.16
2023-01-25T01:22:34.042Z,102203.13
2023-01-25T01:25:02.116Z,102202.59
2023-01-25T01:27:29.779Z,102193.19
2023-01-25T01:29:57.694Z,102190.50
2023-01-25T01:32:26.966Z,102186.88
2023-01-25T01:34:54.907Z,102186.56
2023-01-25T01:37:22.581Z,102183.44
2023-01-25T01:39:52.479Z,102179.66
2023-01-25T01:42:19.895Z,102181.34
2023-01-25T01:44:49.092Z,102176.06
2023-01-25T01:47:23.081Z,102176.25
2023-01-25T01:49:56.265Z,102177.28
2023-01-25T01:52:28.776Z,102175.22
2023-01-25T01:55:02.100Z,102180.16
2023-01-25T01:57:34.798Z,102176.38
2023-01-25T02:00:06.269Z,102177.91
2023-01-25T02:02:34.285Z,102170.09
2023-01-25T02:05:07.385Z,102172.94
2023-01-25T02:07:36.314Z,102165.06
2023-01-25T02:10:06.091Z,102167.31
2023-01-25T02:12:33.813Z,102159.44
2023-01-25T02:15:01.776Z,102154.03
2023-01-25T02:17:30.904Z,102150.28
2023-01-25T02:20:03.724Z,102153.94
2023-01-25T02:22:41.085Z,102151.44
2023-01-25T02:25:13.658Z,102154.41
2023-01-25T02:27:46.326Z,102152.84
2023-01-25T02:30:14.859Z,102162.13
2023-01-25T02:32:42.833Z,102152.63
2023-01-25T02:35:18.622Z,102151.66
2023-01-25T02:37:47.108Z,102152.81
2023-01-25T02:40:17.523Z,102160.66
2023-01-25T02:42:45.889Z,102153.25
2023-01-25T02:45:17.893Z,102160.16
2023-01-25T02:47:45.443Z,102158.47
2023-01-25T02:50:15.117Z,102154.00
2023-01-25T02:52:43.397Z,102155.88
2023-01-25T02:55:11.675Z,102151.19
2023-01-25T02:57:40.704Z,102153.06
2023-01-25T03:00:09.934Z,102152.06
2023-01-25T03:02:37.477Z,102142.06
2023-01-25T03:05:06.544Z,102150.13
2023-01-25T03:07:34.143Z,102145.84
2023-01-25T03:10:02.051Z,102140.34
2023-01-25T03:12:29.590Z,102139.56
2023-01-25T03:14:58.990Z,102143.00
2023-01-25T03:17:26.854Z,102141.16
2023-01-25T03:19:54.674Z,102134.69
2023-01-25T03:22:22.325Z,102125.72
2023-01-25T03:24:50.328Z,102130.72
2023-01-25T03:27:17.763Z,102124.84
2023-01-25T03:29:45.840Z,102128.16
2023-01-25T03:32:15.230Z,102133.59
2023-01-25T03:34:43.131Z,102127.63
2023-01-25T03:37:10.615Z,102133.06
2023-01-25T03:39:38.445Z,102132.00
2023-01-25T03:42:06.567Z,102127.53
2023-01-25T03:44:34.653Z,102117.91
2023-01-25T03:47:02.428Z,102126.19
2023-01-25T03:49:31.926Z,102122.56
2023-01-25T03:51:59.558Z,102121.19
2023-01-25T03:54:27.531Z,102110.78
2023-01-25T03:56:55.056Z,102111.94
2023-01-25T03:59:22.907Z,102118.03
2023-01-25T04:01:50.642Z,102109.31
2023-01-25T04:04:18.731Z,102117.50
2023-01-25T04:06:47.776Z,102109.66
2023-01-25T04:09:15.593Z,102108.28
2023-01-25T04:11:43.119Z,102096.72
2023-01-25T04:14:11.530Z,102099.34
2023-01-25T04:16:39.181Z,102105.06
2023-01-25T04:19:07.545Z,102095.34
2023-01-25T04:21:35.022Z,102098.34
2023-01-25T04:24:12.534Z,102087.31
2023-01-25T04:26:39.921Z,102090.53
2023-01-25T04:29:07.988Z,102089.50
2023-01-25T04:31:35.676Z,102079.94
2023-01-25T04:34:03.929Z,102079.34
2023-01-25T04:36:31.746Z,102075.75
2023-01-25T04:38:59.929Z,102081.59
2023-01-25T04:41:29.254Z,102075.75
2023-01-25T04:43:57.645Z,102078.72
2023-01-25T04:46:25.263Z,102069.72
2023-01-25T04:48:53.125Z,102072.38
2023-01-25T04:51:20.597Z,102070.66
2023-01-25T04:53:48.531Z,102067.84
2023-01-25T04:56:16.377Z,102067.31
2023-01-25T04:58:45.970Z,102070.28
2023-01-25T05:01:13.581Z,102070.28
2023-01-25T05:03:41.731Z,102074.19
2023-01-25T05:06:09.390Z,102065.56
2023-01-25T05:08:37.281Z,102059.41
2023-01-25T05:11:05.029Z,102057.25
2023-01-25T05:13:33.078Z,102057.25
2023-01-25T05:16:02.078Z,102053.56
2023-01-25T05:18:39.059Z,102056.97
2023-01-25T05:21:14.972Z,102051.09
2023-01-25T05:23:42.871Z,102052.88
2023-01-25T05:26:10.820Z,102041.94
2023-01-25T05:28:39.080Z,102051.09
2023-01-25T05:31:08.435Z,102049.47
2023-01-25T05:33:36.576Z,102044.75
2023-01-25T05:36:10.429Z,102044.88
2023-01-25T05:38:38.465Z,102041.44
2023-01-25T05:41:06.145Z,102042.47
2023-01-25T05:43:34.074Z,102033.94
2023-01-25T05:46:01.561Z,102037.56
2023-01-25T05:48:30.990Z,102033.19
2023-01-25T05:50:58.557Z,102027.69
2023-01-25T05:53:26.616Z,102031.47
2023-01-25T05:55:54.446Z,102018.53
2023-01-25T05:58:22.749Z,102028.59
2023-01-25T06:00:50.353Z,102020.00
2023-01-25T06:03:18.427Z,102025.34
2023-01-25T06:05:47.590Z,102018.94
2023-01-25T06:08:15.599Z,102013.75
2023-01-25T06:10:43.222Z,102018.84
2023-01-25T06:13:11.728Z,102020.47
2023-01-25T06:15:39.376Z,102014.56
2023-01-25T06:18:07.774Z,102025.31
2023-01-25T06:20:35.229Z,102016.06
2023-01-25T06:23:04.601Z,102010.56
2023-01-25T06:25:32.264Z,102013.50
2023-01-25T06:28:00.336Z,102012.34
2023-01-25T06:30:27.893Z,102018.97
2023-01-25T06:32:58.174Z,102016.13
2023-01-25T06:35:25.958Z,102014.34
2023-01-25T06:37:55.814Z,102017.53
2023-01-25T06:40:25.203Z,102014.00
2023-01-25T06:42:53.534Z,102020.66
2023-01-25T06:45:21.093Z,102016.22
2023-01-25T06:47:49.631Z,102017.66
2023-01-25T06:50:17.249Z,102012.72
2023-01-25T06:52:52.607Z,102009.84
2023-01-25T06:55:21.045Z,102006.75
2023-01-25T06:57:50.425Z,102009.16
2023-01-25T07:00:19.168Z,102012.81
2023-01-25T07:02:47.126Z,102002.81
2023-01-25T07:05:14.814Z,102005.09
2023-01-25T07:07:45.697Z,101999.19
2023-01-25T07:10:13.543Z,101999.72
2023-01-25T07:12:41.644Z,101991.72
2023-01-25T07:15:11.621Z,101995.22
2023-01-25T07:17:39.986Z,101996.75
2023-01-25T07:20:08.979Z,101995.84
2023-01-25T07:22:36.935Z,101993.34
2023-01-25T07:25:04.879Z,101997.97
2023-01-25T07:27:33.876Z,101992.97
2023-01-25T07:30:01.494Z,101993.13
2023-01-25T07:32:30.926Z,101992.03
2023-01-25T07:34:58.509Z,101996.00
2023-01-25T07:37:26.585Z,101992.75
2023-01-25T07:39:54.081Z,101988.56
2023-01-25T07:42:22.258Z,101989.13
2023-01-25T07:44:50.033Z,101991.66
2023-01-25T07:47:18.350Z,101984.16
2023-01-25T07:49:47.552Z,101973.41
2023-01-25T07:52:15.380Z,101976.53
2023-01-25T07:54:43.069Z,101978.31
2023-01-25T07:57:11.231Z,101982.84
2023-01-25T07:59:38.695Z,101975.31
2023-01-25T08:02:08.214Z,101970.84
2023-01-25T08:04:35.860Z,101973.94
2023-01-25T08:07:05.788Z,101967.59
2023-01-25T08:09:33.654Z,101972.13
2023-01-25T08:12:01.566Z,101959.13
2023-01-25T08:14:29.153Z,101950.91
2023-01-25T08:16:57.319Z,101947.81
2023-01-25T08:19:25.160Z,101951.69
2023-01-25T08:21:53.130Z,101940.88
2023-01-25T08:24:24.549Z,101946.78
2023-01-25T08:26:54.113Z,101947.47
2023-01-25T08:29:22.233Z,101944.47
2023-01-25T08:31:50.807Z,101951.00
2023-01-25T08:34:18.433Z,101949.28
2023-01-25T08:36:46.597Z,101952.28
2023-01-25T08:39:14.340Z,101942.41
2023-01-25T08:41:44.263Z,101945.47
2023-01-25T08:44:12.265Z,101944.84
2023-01-25T08:46:40.827Z,101954.53
2023-01-25T08:49:09.687Z,101952.47
2023-01-25T08:51:37.795Z,101947.44
2023-01-25T08:54:07.078Z,101951.81
2023-01-25T08:56:37.324Z,101943.78
2023-01-25T08:59:06.785Z,101937.97
2023-01-25T09:01:34.770Z,101930.25
2023-01-25T09:04:02.450Z,101913.84
2023-01-25T09:06:31.157Z,101906.56
2023-01-25T09:08:59.390Z,101899.66
2023-01-25T09:11:27.455Z,101895.28
2023-01-25T09:13:55.222Z,101898.50
2023-01-25T09:16:25.895Z,101895.88
2023-01-25T09:18:53.707Z,101899.25
2023-01-25T09:21:22.593Z,101907.84
2023-01-25T09:24:05.480Z,101902.81
2023-01-25T09:26:35.115Z,101904.41
2023-01-25T09:29:02.972Z,101906.97
2023-01-25T09:31:32.584Z,101906.78
2023-01-25T09:34:00.225Z,101899.66
2023-01-25T09:36:28.365Z,101902.91
2023-01-25T09:38:56.077Z,101900.94
2023-01-25T09:42:00.784Z,101899.63
2023-01-25T09:44:45.423Z,101894.94
2023-01-25T09:47:24.897Z,101887.75
2023-01-25T09:50:13.184Z,101883.91
2023-01-25T09:53:25.438Z,101875.81
2023-01-25T09:55:55.389Z,101863.41
2023-01-25T09:58:29.572Z,101863.53
2023-01-25T10:01:14.051Z,101859.47
2023-01-25T10:03:53.405Z,101854.47
2023-01-25T10:06:23.557Z,101852.00
2023-01-25T10:08:57.632Z,101842.63
2023-01-25T10:11:28.080Z,101845.47
2023-01-25T10:13:57.771Z,101845.97
2023-01-25T10:16:32.017Z,101844.97
2023-01-25T10:19:13.553Z,101839.50
2023-01-25T10:21:43.832Z,101832.72
2023-01-25T10:24:40.249Z,101836.63
2023-01-25T10:27:19.642Z,101825.44
2023-01-25T10:29:48.682Z,101821.56
2023-01-25T10:32:19.861Z,101825.06
2023-01-25T10:34:56.737Z,101819.00
2023-01-25T10:37:28.618Z,101817.44
2023-01-25T10:40:03.085Z,101831.25
2023-01-25T10:42:38.222Z,101831.50
2023-01-25T10:45:12.008Z,101830.38
2023-01-25T10:47:42.799Z,101824.22
2023-01-25T10:50:43.170Z,101826.88
2023-01-25T10:53:31.477Z,101819.53
2023-01-25T10:56:22.064Z,101820.31
2023-01-25T10:58:51.522Z,101818.69
2023-01-25T11:01:29.037Z,101814.78
2023-01-25T11:03:57.403Z,101801.06
2023-01-25T11:06:36.120Z,101803.84
2023-01-25T11:09:31.460Z,101806.28
2023-01-25T11:12:01.785Z,101797.13
2023-01-25T11:14:31.726Z,101789.66
2023-01-25T11:17:01.734Z,101780.84
2023-01-25T11:19:33.902Z,101773.09
2023-01-25T11:22:05.642Z,101773.28
2023-01-25T11:24:34.239Z,101770.81
2023-01-25T11:27:23.926Z,101771.91
2023-01-25T11:30:10.823Z,101771.31
2023-01-25T11:32:40.398Z,101759.81
2023-01-25T11:35:14.120Z,101750.63
2023-01-25T11:38:02.263Z,101735.03
2023-01-25T11:40:37.571Z,101738.16
2023-01-25T11:43:22.210Z,101723.31
2023-01-25T11:46:10.848Z,101724.91
2023-01-25T11:48:54.610Z,101713.63
2023-01-25T11:51:27.934Z,101723.22
2023-01-25T11:54:36.040Z,101718.28
2023-01-25T11:57:17.203Z,101714.25
2023-01-25T12:00:01.396Z,101713.72
2023-01-25T12:03:00.909Z,101705.00
2023-01-25T12:05:42.678Z,101690.34
2023-01-25T12:08:25.669Z,101685.63
2023-01-25T12:11:06.493Z,101669.28
2023-01-25T12:13:42.223Z,101662.44
2023-01-25T12:16:23.276Z,101657.94
2023-01-25T12:19:13.350Z,101661.06
2023-01-25T12:21:54.588Z,101650.94
2023-01-25T12:24:38.775Z,101645.06
2023-01-25T12:27:21.717Z,101645.69
2023-01-25T12:29:55.745Z,101637.16
2023-01-25T12:32:30.786Z,101640.13
2023-01-25T12:35:13.545Z,101633.19
2023-01-25T12:37:44.097Z,101628.31
2023-01-25T12:40:15.717Z,101622.41
2023-01-25T12:42:52.272Z,101616.66
2023-01-25T12:45:24.516Z,101614.78
2023-01-25T12:47:57.117Z,101617.06
2023-01-25T12:50:30.792Z,101614.78
2023-01-25T12:53:02.958Z,101607.88
2023-01-25T12:55:31.122Z,101608.94
2023-01-25T12:58:07.455Z,101608.81
2023-01-25T13:00:42.922Z,101600.94
2023-01-25T13:03:27.496Z,101602.66
2023-01-25T13:06:01.850Z,101600.19
2023-01-25T13:08:40.344Z,101593.06
2023-01-25T13:11:14.040Z,101588.44
2023-01-25T13:16:38.652Z,101585.38
2023-01-25T13:19:20.271Z,101589.06
2023-01-25T13:21:49.602Z,101586.31
2023-01-25T13:24:20.729Z,101583.56
2023-01-25T13:27:03.507Z,101578.75
2023-01-25T13:29:56.382Z,101585.03
2023-01-25T13:33:03.911Z,101577.31
2023-01-25T13:35:41.069Z,101566.09
2023-01-25T13:38:33.135Z,101566.84
2023-01-25T13:41:21.651Z,101567.91
2023-01-25T13:44:08.287Z,101557.34
2023-01-25T13:46:38.390Z,101563.59
2023-01-25T13:49:14.994Z,101560.25
2023-01-25T13:51:43.912Z,101555.41
2023-01-25T13:54:16.848Z,101556.75
2023-01-25T13:56:45.468Z,101555.72
2023-01-25T13:59:27.106Z,101557.63
2023-01-25T14:01:58.871Z,101562.53
2023-01-25T14:04:27.130Z,101553.44
2023-01-25T14:06:59.178Z,101549.53
2023-01-25T14:09:27.112Z,101548.78
2023-01-25T14:11:57.662Z,101542.53
2023-01-25T14:14:27.316Z,101548.41
2023-01-25T14:17:18.500Z,101544.03
2023-01-25T14:19:49.124Z,101542.44
2023-01-25T14:22:25.704Z,101545.00
2023-01-25T14:25:13.127Z,101540.25
2023-01-25T14:27:46.658Z,101539.09
2023-01-25T14:30:18.073Z,101521.59
2023-01-25T14:32:50.602Z,101527.09
2023-01-25T14:35:43.159Z,101520.84
2023-01-25T14:38:25.428Z,101518.25
2023-01-25T14:40:57.194Z,101521.38
2023-01-25T14:43:26.751Z,101503.75
2023-01-25T14:45:54.827Z,101505.50
2023-01-25T14:48:39.623Z,101506.81
2023-01-25T14:51:13.314Z,101511.59
2023-01-25T14:53:44.511Z,101500.63
2023-01-25T14:56:24.256Z,101483.06
2023-01-25T14:58:59.535Z,101477.63
2023-01-25T15:01:38.049Z,101475.19
2023-01-25T15:04:13.403Z,101470.22
2023-01-25T15:06:49.670Z,101465.97
2023-01-25T15:09:39.252Z,101464.50
2023-01-25T15:12:26.693Z,101456.91
2023-01-25T15:14:56.927Z,101452.94
2023-01-25T15:17:42.237Z,101448.09
2023-01-25T15:20:33.118Z,101445.84
2023-01-25T15:23:02.825Z,101441.09
2023-01-25T15:25:31.402Z,101441.94
2023-01-25T15:27:59.055Z,101441.44
2023-01-25T15:30:27.250Z,101443.94
2023-01-25T15:32:55.481Z,101436.88
2023-01-25T15:35:23.546Z,101434.50
2023-01-25T15:37:52.670Z,101434.06
2023-01-25T15:40:20.641Z,101434.91
2023-01-25T15:42:48.414Z,101433.09
2023-01-25T15:45:16.683Z,101421.41
2023-01-25T15:47:44.289Z,101428.91
2023-01-25T15:50:18.130Z,101416.75
2023-01-25T15:52:46.816Z,101421.34
2023-01-25T15:55:16.815Z,101418.91
2023-01-25T15:57:44.365Z,101415.63
2023-01-25T16:00:17.356Z,101414.56
2023-01-25T16:02:44.975Z,101413.34
2023-01-25T16:05:13.374Z,101401.25
2023-01-25T16:07:44.115Z,101399.09
2023-01-25T16:10:25.409Z,101401.69
2023-01-25T16:12:52.851Z,101390.75
2023-01-25T16:15:20.873Z,101383.63
2023-01-25T16:17:48.698Z,101385.25
2023-01-25T16:20:18.783Z,101381.72
2023-01-25T16:22:46.672Z,101379.16
2023-01-25T16:25:15.596Z,101382.47
2023-01-25T16:27:44.755Z,101377.06
2023-01-25T16:30:19.192Z,101378.13
2023-01-25T16:32:47.311Z,101369.38
2023-01-25T16:35:15.268Z,101360.47
2023-01-25T16:37:43.117Z,101367.69
2023-01-25T16:40:24.197Z,101359.94
2023-01-25T16:42:53.329Z,101353.88
2023-01-25T16:45:21.715Z,101354.63
2023-01-25T16:47:49.991Z,101356.72
2023-01-25T16:50:21.671Z,101353.78
2023-01-25T16:52:49.946Z,101357.50
2023-01-25T16:55:19.599Z,101355.59
2023-01-25T16:57:51.024Z,101349.63
2023-01-25T17:00:21.442Z,101347.38
2023-01-25T17:02:58.778Z,101344.41
2023-01-25T17:05:28.151Z,101340.38
2023-01-25T17:07:55.846Z,101337.25
2023-01-25T17:10:24.483Z,101332.50
2023-01-25T17:12:52.202Z,101334.31
2023-01-25T17:15:21.951Z,101331.16
2023-01-25T17:17:49.835Z,101332.97
2023-01-25T17:20:18.314Z,101320.50
2023-01-25T17:22:45.975Z,101319.16
2023-01-25T17:25:14.152Z,101328.06
2023-01-25T17:27:42.148Z,101317.09
2023-01-25T17:30:11.730Z,101313.50
2023-01-25T17:32:41.129Z,101311.03
2023-01-25T17:35:10.166Z,101306.66
2023-01-25T17:37:37.783Z,101311.22
2023-01-25T17:40:07.291Z,101302.59
2023-01-25T17:42:35.405Z,101303.28
2023-01-25T17:45:04.684Z,101308.59
2023-01-25T17:47:33.680Z,101300.91
2023-01-25T17:50:03.879Z,101297.97
2023-01-25T17:52:31.969Z,101296.28
2023-01-25T17:55:00.416Z,101297.69
2023-01-25T17:57:30.637Z,101295.22
2023-01-25T17:59:59.403Z,101284.13
2023-01-25T18:02:27.714Z,101286.59
2023-01-25T18:04:56.600Z,101278.16
2023-01-25T18:07:26.045Z,101273.50
2023-01-25T18:09:54.276Z,101268.75
2023-01-25T18:12:22.129Z,101273.78
2023-01-25T18:14:50.487Z,101270.66
2023-01-25T18:17:18.199Z,101274.16
2023-01-25T18:19:46.607Z,101268.00
2023-01-25T18:22:14.466Z,101267.53
2023-01-25T18:24:44.166Z,101255.31
2023-01-25T18:27:19.069Z,101260.03
2023-01-25T18:29:54.188Z,101262.03
2023-01-25T18:32:21.947Z,101261.47
2023-01-25T18:34:50.157Z,101267.34
2023-01-25T18:37:18.039Z,101258.72
2023-01-25T18:39:49.455Z,101255.22
2023-01-25T18:42:17.290Z,101253.88
2023-01-25T18:44:45.590Z,101251.50
2023-01-25T18:47:13.346Z,101243.63
2023-01-25T18:49:41.640Z,101248.56
2023-01-25T18:52:11.901Z,101242.09
2023-01-25T18:54:40.600Z,101242.88
2023-01-25T18:57:10.028Z,101236.81
2023-01-25T18:59:38.046Z,101230.66
2023-01-25T19:02:07.004Z,101225.22
2023-01-25T19:04:35.544Z,101229.88
2023-01-25T19:07:03.834Z,101221.44
2023-01-25T19:09:32.629Z,101218.50
2023-01-25T19:12:00.435Z,101216.44
2023-01-25T19:14:30.315Z,101213.56
2023-01-25T19:16:57.970Z,101214.41
2023-01-25T19:19:27.021Z,101210.94
2023-01-25T19:21:55.007Z,101205.91
2023-01-25T19:24:23.350Z,101203.59
2023-01-25T19:26:51.167Z,101198.78
2023-01-25T19:29:19.646Z,101190.00
2023-01-25T19:31:49.193Z,101195.91
2023-01-25T19:34:17.240Z,101197.06
2023-01-25T19:36:45.489Z,101193.44
2023-01-25T19:39:13.691Z,101194.41
2023-01-25T19:41:41.831Z,101185.94
2023-01-25T19:44:12.510Z,101186.22
2023-01-25T19:46:40.667Z,101182.63
2023-01-25T19:49:11.268Z,101185.53
2023-01-25T19:51:40.128Z,101191.56
2023-01-25T19:54:11.780Z,101180.97
2023-01-25T19:56:40.880Z,101175.66
2023-01-25T19:59:12.230Z,101174.63
2023-01-25T20:01:39.971Z,101170.34
2023-01-25T20:04:10.110Z,101169.94
2023-01-25T20:06:37.792Z,101167.66
2023-01-25T20:09:06.133Z,101162.25
2023-01-25T20:11:34.458Z,101159.50
2023-01-25T20:14:05.031Z,101168.41
2023-01-25T20:16:35.008Z,101160.78
2023-01-25T20:19:04.745Z,101149.22
2023-01-25T20:21:34.832Z,101145.88
2023-01-25T20:24:05.077Z,101140.34
2023-01-25T20:26:35.135Z,101136.28
2023-01-25T20:29:04.987Z,101138.75
2023-01-25T20:31:34.631Z,101137.53
2023-01-25T20:34:05.528Z,101131.38
2023-01-25T20:36:38.687Z,101133.34
2023-01-25T20:39:07.760Z,101124.28
2023-01-25T20:41:35.965Z,101121.63
2023-01-25T20:44:04.910Z,101118.69
2023-01-25T20:46:33.944Z,101114.63
2023-01-25T20:49:02.561Z,101108.69
2023-01-25T20:51:31.898Z,101112.72
2023-01-25T20:54:01.795Z,101108.94
2023-01-25T20:56:31.084Z,101104.09
2023-01-25T20:58:59.021Z,101093.28
2023-01-25T21:01:30.026Z,101095.91
2023-01-25T21:03:58.810Z,101094.81
2023-01-25T21:06:28.034Z,101087.84
2023-01-25T21:08:56.370Z,101094.16
2023-01-25T21:11:26.460Z,101090.16
2023-01-25T21:13:54.366Z,101096.63
2023-01-25T21:16:23.683Z,101094.75
2023-01-25T21:18:52.706Z,101085.59
2023-01-25T21:21:22.513Z,101087.44
2023-01-25T21:23:51.414Z,101084.25
2023-01-25T21:26:21.381Z,101080.19
2023-01-25T21:28:52.056Z,101076.09
2023-01-25T21:31:22.561Z,101068.75
2023-01-25T21:33:50.553Z,101071.22
2023-01-25T21:36:19.642Z,101083.84
2023-01-25T21:38:49.009Z,101078.25
2023-01-25T21:41:18.799Z,101080.25
2023-01-25T21:43:46.766Z,101089.00
2023-01-25T21:46:16.589Z,101073.34
2023-01-25T21:48:44.703Z,101068.97
2023-01-25T21:51:13.116Z,101071.31
2023-01-25T21:53:41.089Z,101064.09
2023-01-25T21:56:09.140Z,101071.97
2023-01-25T21:58:36.862Z,101068.13
2023-01-25T22:01:05.743Z,101062.69
2023-01-25T22:03:34.870Z,101059.66
2023-01-25T22:06:03.278Z,101060.75
2023-01-25T22:08:31.463Z,101063.97
2023-01-25T22:11:03.643Z,101062.91
2023-01-25T22:13:31.488Z,101054.50
2023-01-25T22:16:00.294Z,101051.09
2023-01-25T22:18:33.198Z,101044.09
2023-01-25T22:21:05.789Z,101031.34
2023-01-25T22:23:34.107Z,101033.44
2023-01-25T22:26:04.133Z,101036.84
2023-01-25T22:28:33.955Z,101035.94
2023-01-25T22:31:01.964Z,101025.91
2023-01-25T22:33:29.645Z,101023.34
2023-01-25T22:35:57.638Z,101023.13
2023-01-25T22:38:26.586Z,101019.00
2023-01-25T22:40:56.432Z,101026.66
2023-01-25T22:43:24.514Z,101010.81
2023-01-25T22:45:53.000Z,101004.84
2023-01-25T22:48:20.653Z,101010.94
2023-01-25T22:50:49.505Z,101006.66
2023-01-25T22:53:17.146Z,101004.31
2023-01-25T22:55:46.872Z,101002.28
2023-01-25T22:58:14.332Z,100997.59
2023-01-25T23:00:42.839Z,100994.88
2023-01-25T23:03:11.086Z,100990.59
2023-01-25T23:05:39.351Z,100989.53
2023-01-25T23:08:06.998Z,100979.13
2023-01-25T23:10:35.086Z,100977.72
2023-01-25T23:13:04.419Z,100975.50
2023-01-25T23:15:32.772Z,100980.38
2023-01-25T23:18:00.727Z,100966.97
2023-01-25T23:20:29.558Z,100970.50
2023-01-25T23:22:57.162Z,100962.75
2023-01-25T23:25:25.850Z,100966.88
2023-01-25T23:27:53.654Z,100965.72
2023-01-25T23:30:23.679Z,100956.91
2023-01-25T23:32:51.424Z,100951.59
2023-01-25T23:35:21.056Z,100946.91
2023-01-25T23:37:48.666Z,100943.28
2023-01-25T23:40:17.171Z,100948.16
2023-01-25T23:42:44.976Z,100944.03
2023-01-25T23:45:13.495Z,100947.66
2023-01-25T23:47:42.467Z,100941.25
2023-01-25T23:50:12.182Z,100939.56
2023-01-25T23:52:39.780Z,100943.28
2023-01-25T23:55:08.931Z,100935.63
2023-01-25T23:57:36.529Z,100936.81
